sensor_id;sensor_type;location;lat;lon;timestamp;P1;durP1;ratioP1;P2;durP2;ratioP2
15871;SDS011;8035;51.962;7.162;2022-07-05T00:02:17;3.07;;;2.57;;
15871;SDS011;8035;51.962;7.162;2022-07-05T00:04:43;4.90;;;4.40;;
15871;SDS011;8035;51.962;7.162;2022-07-05T00:07:10;4.00;;;3.50;;
15871;SDS011;8035;51.962;7.162;2022-07-05T00:09:52;3.80;;;3.50;;
15871;SDS011;8035;51.962;7.162;2022-07-05T00:12:20;5.63;;;3.90;;
15871;SDS011;8035;51.962;7.162;2022-07-05T00:14:47;5.00;;;3.60;;
15871;SDS011;8035;51.962;7.162;2022-07-05T00:17:13;3.83;;;3.43;;
15871;SDS011;8035;51.962;7.162;2022-07-05T00:19:39;4.90;;;3.10;;
15871;SDS011;8035;51.962;7.162;2022-07-05T00:22:06;5.60;;;2.70;;
15871;SDS011;8035;51.962;7.162;2022-07-05T00:24:32;3.53;;;2.70;;
15871;SDS011;8035;51.962;7.162;2022-07-05T00:26:58;10.40;;;4.27;;
15871;SDS011;8035;51.962;7.162;2022-07-05T00:29:24;5.27;;;2.80;;
15871;SDS011;8035;51.962;7.162;2022-07-05T00:31:51;2.80;;;2.50;;
15871;SDS011;8035;51.962;7.162;2022-07-05T00:34:17;4.20;;;2.50;;
15871;SDS011;8035;51.962;7.162;2022-07-05T00:36:43;3.80;;;2.90;;
15871;SDS011;8035;51.962;7.162;2022-07-05T00:39:09;3.20;;;2.90;;
15871;SDS011;8035;51.962;7.162;2022-07-05T00:41:35;4.03;;;2.63;;
15871;SDS011;8035;51.962;7.162;2022-07-05T00:44:02;5.63;;;2.73;;
15871;SDS011;8035;51.962;7.162;2022-07-05T00:46:29;3.33;;;3.10;;
15871;SDS011;8035;51.962;7.162;2022-07-05T00:48:56;4.03;;;2.90;;
15871;SDS011;8035;51.962;7.162;2022-07-05T00:51:23;3.37;;;2.70;;
15871;SDS011;8035;51.962;7.162;2022-07-05T00:53:49;3.63;;;2.60;;
15871;SDS011;8035;51.962;7.162;2022-07-05T00:56:15;4.00;;;2.87;;
15871;SDS011;8035;51.962;7.162;2022-07-05T00:58:41;4.57;;;3.00;;
15871;SDS011;8035;51.962;7.162;2022-07-05T01:01:08;2.60;;;2.40;;
15871;SDS011;8035;51.962;7.162;2022-07-05T01:03:35;6.50;;;3.13;;
15871;SDS011;8035;51.962;7.162;2022-07-05T01:06:02;4.50;;;3.20;;
15871;SDS011;8035;51.962;7.162;2022-07-05T01:08:28;6.93;;;3.10;;
15871;SDS011;8035;51.962;7.162;2022-07-05T01:10:55;5.97;;;2.90;;
15871;SDS011;8035;51.962;7.162;2022-07-05T01:13:24;3.40;;;3.10;;
15871;SDS011;8035;51.962;7.162;2022-07-05T01:15:51;3.33;;;3.03;;
15871;SDS011;8035;51.962;7.162;2022-07-05T01:18:18;4.20;;;3.40;;
15871;SDS011;8035;51.962;7.162;2022-07-05T01:20:44;4.33;;;3.17;;
15871;SDS011;8035;51.962;7.162;2022-07-05T01:23:13;3.73;;;3.37;;
15871;SDS011;8035;51.962;7.162;2022-07-05T01:25:39;3.87;;;3.57;;
15871;SDS011;8035;51.962;7.162;2022-07-05T01:28:05;3.97;;;3.57;;
15871;SDS011;8035;51.962;7.162;2022-07-05T01:30:31;4.23;;;3.83;;
15871;SDS011;8035;51.962;7.162;2022-07-05T01:32:59;4.37;;;3.97;;
15871;SDS011;8035;51.962;7.162;2022-07-05T01:35:25;4.47;;;3.80;;
15871;SDS011;8035;51.962;7.162;2022-07-05T01:37:51;3.77;;;3.37;;
15871;SDS011;8035;51.962;7.162;2022-07-05T01:40:18;4.50;;;3.50;;
15871;SDS011;8035;51.962;7.162;2022-07-05T01:42:45;3.93;;;3.60;;
15871;SDS011;8035;51.962;7.162;2022-07-05T01:45:11;4.23;;;3.60;;
15871;SDS011;8035;51.962;7.162;2022-07-05T01:47:41;3.70;;;3.40;;
15871;SDS011;8035;51.962;7.162;2022-07-05T01:50:12;4.00;;;3.60;;
15871;SDS011;8035;51.962;7.162;2022-07-05T01:52:38;3.27;;;2.97;;
15871;SDS011;8035;51.962;7.162;2022-07-05T01:55:07;3.57;;;3.27;;
15871;SDS011;8035;51.962;7.162;2022-07-05T01:57:33;5.20;;;3.50;;
15871;SDS011;8035;51.962;7.162;2022-07-05T01:59:59;5.93;;;3.20;;
15871;SDS011;8035;51.962;7.162;2022-07-05T02:02:25;3.73;;;3.43;;
15871;SDS011;8035;51.962;7.162;2022-07-05T02:04:51;5.27;;;3.60;;
15871;SDS011;8035;51.962;7.162;2022-07-05T02:07:17;4.67;;;3.57;;
15871;SDS011;8035;51.962;7.162;2022-07-05T02:09:43;4.80;;;3.40;;
15871;SDS011;8035;51.962;7.162;2022-07-05T02:12:10;4.20;;;3.47;;
15871;SDS011;8035;51.962;7.162;2022-07-05T02:14:36;3.80;;;3.43;;
15871;SDS011;8035;51.962;7.162;2022-07-05T02:17:02;6.40;;;3.53;;
15871;SDS011;8035;51.962;7.162;2022-07-05T02:19:28;4.60;;;3.50;;
15871;SDS011;8035;51.962;7.162;2022-07-05T02:21:54;4.40;;;3.50;;
15871;SDS011;8035;51.962;7.162;2022-07-05T02:24:20;4.13;;;3.80;;
15871;SDS011;8035;51.962;7.162;2022-07-05T02:26:47;6.83;;;3.80;;
15871;SDS011;8035;51.962;7.162;2022-07-05T02:29:13;4.93;;;3.90;;
15871;SDS011;8035;51.962;7.162;2022-07-05T02:31:39;4.13;;;3.63;;
15871;SDS011;8035;51.962;7.162;2022-07-05T02:34:05;6.30;;;4.20;;
15871;SDS011;8035;51.962;7.162;2022-07-05T02:36:31;5.00;;;3.93;;
15871;SDS011;8035;51.962;7.162;2022-07-05T02:38:57;3.73;;;3.43;;
15871;SDS011;8035;51.962;7.162;2022-07-05T02:41:23;4.63;;;4.23;;
15871;SDS011;8035;51.962;7.162;2022-07-05T02:43:49;4.20;;;3.80;;
15871;SDS011;8035;51.962;7.162;2022-07-05T02:46:17;8.50;;;4.30;;
15871;SDS011;8035;51.962;7.162;2022-07-05T02:48:43;5.03;;;4.47;;
15871;SDS011;8035;51.962;7.162;2022-07-05T02:51:09;6.27;;;4.07;;
15871;SDS011;8035;51.962;7.162;2022-07-05T02:53:35;4.63;;;3.90;;
15871;SDS011;8035;51.962;7.162;2022-07-05T02:56:02;5.43;;;3.70;;
15871;SDS011;8035;51.962;7.162;2022-07-05T02:58:28;5.17;;;3.67;;
15871;SDS011;8035;51.962;7.162;2022-07-05T03:00:54;4.10;;;3.73;;
15871;SDS011;8035;51.962;7.162;2022-07-05T03:03:20;4.20;;;3.80;;
15871;SDS011;8035;51.962;7.162;2022-07-05T03:05:46;3.83;;;3.50;;
15871;SDS011;8035;51.962;7.162;2022-07-05T03:08:12;4.63;;;3.70;;
15871;SDS011;8035;51.962;7.162;2022-07-05T03:10:38;5.50;;;4.20;;
15871;SDS011;8035;51.962;7.162;2022-07-05T03:13:04;4.73;;;4.13;;
15871;SDS011;8035;51.962;7.162;2022-07-05T03:15:31;4.73;;;4.33;;
15871;SDS011;8035;51.962;7.162;2022-07-05T03:17:57;4.50;;;4.10;;
15871;SDS011;8035;51.962;7.162;2022-07-05T03:20:23;7.13;;;4.03;;
15871;SDS011;8035;51.962;7.162;2022-07-05T03:22:49;3.90;;;3.50;;
15871;SDS011;8035;51.962;7.162;2022-07-05T03:25:15;4.90;;;4.37;;
15871;SDS011;8035;51.962;7.162;2022-07-05T03:27:41;4.10;;;3.70;;
15871;SDS011;8035;51.962;7.162;2022-07-05T03:30:07;4.50;;;3.90;;
15871;SDS011;8035;51.962;7.162;2022-07-05T03:32:34;3.63;;;3.30;;
15871;SDS011;8035;51.962;7.162;2022-07-05T03:35:00;5.00;;;3.37;;
15871;SDS011;8035;51.962;7.162;2022-07-05T03:37:26;4.10;;;3.53;;
15871;SDS011;8035;51.962;7.162;2022-07-05T03:39:52;5.17;;;4.13;;
15871;SDS011;8035;51.962;7.162;2022-07-05T03:42:18;4.80;;;4.30;;
15871;SDS011;8035;51.962;7.162;2022-07-05T03:44:44;4.93;;;4.43;;
15871;SDS011;8035;51.962;7.162;2022-07-05T03:47:10;5.70;;;4.13;;
15871;SDS011;8035;51.962;7.162;2022-07-05T03:49:36;5.17;;;4.67;;
15871;SDS011;8035;51.962;7.162;2022-07-05T03:52:02;4.97;;;4.37;;
15871;SDS011;8035;51.962;7.162;2022-07-05T03:54:28;7.10;;;4.50;;
15871;SDS011;8035;51.962;7.162;2022-07-05T03:56:54;5.53;;;4.23;;
15871;SDS011;8035;51.962;7.162;2022-07-05T03:59:21;5.23;;;4.73;;
15871;SDS011;8035;51.962;7.162;2022-07-05T04:01:47;4.70;;;4.23;;
15871;SDS011;8035;51.962;7.162;2022-07-05T04:04:13;7.23;;;4.40;;
15871;SDS011;8035;51.962;7.162;2022-07-05T04:06:39;4.40;;;4.00;;
15871;SDS011;8035;51.962;7.162;2022-07-05T04:09:05;5.33;;;3.80;;
15871;SDS011;8035;51.962;7.162;2022-07-05T04:11:31;5.07;;;4.57;;
15871;SDS011;8035;51.962;7.162;2022-07-05T04:13:57;4.60;;;4.17;;
15871;SDS011;8035;51.962;7.162;2022-07-05T04:16:23;5.60;;;4.03;;
15871;SDS011;8035;51.962;7.162;2022-07-05T04:18:51;4.60;;;3.93;;
15871;SDS011;8035;51.962;7.162;2022-07-05T04:21:17;4.33;;;3.90;;
15871;SDS011;8035;51.962;7.162;2022-07-05T04:23:43;5.33;;;3.90;;
15871;SDS011;8035;51.962;7.162;2022-07-05T04:26:09;5.87;;;4.37;;
15871;SDS011;8035;51.962;7.162;2022-07-05T04:28:35;4.67;;;4.00;;
15871;SDS011;8035;51.962;7.162;2022-07-05T04:31:01;5.50;;;4.40;;
15871;SDS011;8035;51.962;7.162;2022-07-05T04:33:27;4.90;;;4.40;;
15871;SDS011;8035;51.962;7.162;2022-07-05T04:35:53;5.47;;;4.07;;
15871;SDS011;8035;51.962;7.162;2022-07-05T04:38:19;5.87;;;4.40;;
15871;SDS011;8035;51.962;7.162;2022-07-05T04:40:45;5.20;;;4.53;;
15871;SDS011;8035;51.962;7.162;2022-07-05T04:43:12;4.67;;;4.10;;
15871;SDS011;8035;51.962;7.162;2022-07-05T04:45:38;5.07;;;4.60;;
15871;SDS011;8035;51.962;7.162;2022-07-05T04:48:04;4.90;;;4.23;;
15871;SDS011;8035;51.962;7.162;2022-07-05T04:50:30;4.77;;;4.20;;
15871;SDS011;8035;51.962;7.162;2022-07-05T04:52:56;4.77;;;4.37;;
15871;SDS011;8035;51.962;7.162;2022-07-05T04:55:22;4.70;;;4.00;;
15871;SDS011;8035;51.962;7.162;2022-07-05T04:57:48;4.67;;;4.27;;
15871;SDS011;8035;51.962;7.162;2022-07-05T05:00:15;5.30;;;4.40;;
15871;SDS011;8035;51.962;7.162;2022-07-05T05:02:41;4.53;;;4.13;;
15871;SDS011;8035;51.962;7.162;2022-07-05T05:05:07;5.70;;;4.37;;
15871;SDS011;8035;51.962;7.162;2022-07-05T05:07:33;4.83;;;4.43;;
15871;SDS011;8035;51.962;7.162;2022-07-05T05:10:01;5.67;;;4.30;;
15871;SDS011;8035;51.962;7.162;2022-07-05T05:12:27;6.03;;;5.07;;
15871;SDS011;8035;51.962;7.162;2022-07-05T05:14:53;6.53;;;4.83;;
15871;SDS011;8035;51.962;7.162;2022-07-05T05:17:19;4.90;;;4.23;;
15871;SDS011;8035;51.962;7.162;2022-07-05T05:19:46;4.53;;;4.13;;
15871;SDS011;8035;51.962;7.162;2022-07-05T05:22:12;6.70;;;5.00;;
15871;SDS011;8035;51.962;7.162;2022-07-05T05:24:38;5.70;;;4.53;;
15871;SDS011;8035;51.962;7.162;2022-07-05T05:27:04;4.73;;;4.30;;
15871;SDS011;8035;51.962;7.162;2022-07-05T05:29:30;5.97;;;4.30;;
15871;SDS011;8035;51.962;7.162;2022-07-05T05:31:56;5.87;;;4.83;;
15871;SDS011;8035;51.962;7.162;2022-07-05T05:34:22;5.20;;;4.70;;
15871;SDS011;8035;51.962;7.162;2022-07-05T05:36:48;5.53;;;4.53;;
15871;SDS011;8035;51.962;7.162;2022-07-05T05:39:14;5.03;;;4.53;;
15871;SDS011;8035;51.962;7.162;2022-07-05T05:41:40;7.23;;;5.13;;
15871;SDS011;8035;51.962;7.162;2022-07-05T05:44:06;5.50;;;4.80;;
15871;SDS011;8035;51.962;7.162;2022-07-05T05:46:34;8.20;;;4.73;;
15871;SDS011;8035;51.962;7.162;2022-07-05T05:49:00;7.40;;;5.07;;
15871;SDS011;8035;51.962;7.162;2022-07-05T05:51:26;5.13;;;4.53;;
15871;SDS011;8035;51.962;7.162;2022-07-05T05:53:52;5.07;;;4.57;;
15871;SDS011;8035;51.962;7.162;2022-07-05T05:56:18;7.73;;;4.87;;
15871;SDS011;8035;51.962;7.162;2022-07-05T05:58:44;7.13;;;4.93;;
15871;SDS011;8035;51.962;7.162;2022-07-05T06:01:10;5.83;;;4.57;;
15871;SDS011;8035;51.962;7.162;2022-07-05T06:03:36;7.20;;;4.93;;
15871;SDS011;8035;51.962;7.162;2022-07-05T06:06:02;6.63;;;5.20;;
15871;SDS011;8035;51.962;7.162;2022-07-05T06:08:28;6.67;;;5.33;;
15871;SDS011;8035;51.962;7.162;2022-07-05T06:10:54;5.87;;;5.27;;
15871;SDS011;8035;51.962;7.162;2022-07-05T06:13:21;5.73;;;4.60;;
15871;SDS011;8035;51.962;7.162;2022-07-05T06:15:47;7.63;;;5.30;;
15871;SDS011;8035;51.962;7.162;2022-07-05T06:18:13;6.43;;;4.80;;
15871;SDS011;8035;51.962;7.162;2022-07-05T06:20:39;5.30;;;4.70;;
15871;SDS011;8035;51.962;7.162;2022-07-05T06:23:06;5.47;;;4.47;;
15871;SDS011;8035;51.962;7.162;2022-07-05T06:25:32;7.10;;;5.30;;
15871;SDS011;8035;51.962;7.162;2022-07-05T06:27:59;6.87;;;4.63;;
15871;SDS011;8035;51.962;7.162;2022-07-05T06:30:26;6.97;;;4.93;;
15871;SDS011;8035;51.962;7.162;2022-07-05T06:32:53;8.70;;;4.40;;
15871;SDS011;8035;51.962;7.162;2022-07-05T06:35:19;6.27;;;4.60;;
15871;SDS011;8035;51.962;7.162;2022-07-05T06:37:57;4.67;;;4.23;;
15871;SDS011;8035;51.962;7.162;2022-07-05T06:42:50;9.13;;;4.57;;
15871;SDS011;8035;51.962;7.162;2022-07-05T06:45:16;6.30;;;3.80;;
15871;SDS011;8035;51.962;7.162;2022-07-05T06:47:42;4.67;;;4.17;;
15871;SDS011;8035;51.962;7.162;2022-07-05T06:50:08;4.53;;;3.43;;
15871;SDS011;8035;51.962;7.162;2022-07-05T06:52:35;4.00;;;3.60;;
15871;SDS011;8035;51.962;7.162;2022-07-05T06:55:02;7.00;;;3.73;;
15871;SDS011;8035;51.962;7.162;2022-07-05T06:57:28;4.83;;;3.23;;
15871;SDS011;8035;51.962;7.162;2022-07-05T06:59:54;3.50;;;2.97;;
15871;SDS011;8035;51.962;7.162;2022-07-05T07:02:21;4.23;;;3.10;;
15871;SDS011;8035;51.962;7.162;2022-07-05T07:04:47;3.60;;;3.30;;
15871;SDS011;8035;51.962;7.162;2022-07-05T07:07:14;4.97;;;3.43;;
15871;SDS011;8035;51.962;7.162;2022-07-05T07:09:59;4.67;;;3.57;;
15871;SDS011;8035;51.962;7.162;2022-07-05T07:12:26;4.97;;;3.47;;
15871;SDS011;8035;51.962;7.162;2022-07-05T07:14:52;3.20;;;2.90;;
15871;SDS011;8035;51.962;7.162;2022-07-05T07:17:18;5.07;;;3.60;;
15871;SDS011;8035;51.962;7.162;2022-07-05T07:19:44;3.70;;;3.23;;
15871;SDS011;8035;51.962;7.162;2022-07-05T07:22:10;4.50;;;2.63;;
15871;SDS011;8035;51.962;7.162;2022-07-05T07:24:36;4.87;;;3.10;;
15871;SDS011;8035;51.962;7.162;2022-07-05T07:27:02;3.30;;;3.00;;
15871;SDS011;8035;51.962;7.162;2022-07-05T07:29:30;4.30;;;2.57;;
15871;SDS011;8035;51.962;7.162;2022-07-05T07:31:56;2.33;;;2.10;;
15871;SDS011;8035;51.962;7.162;2022-07-05T07:34:23;3.90;;;2.20;;
15871;SDS011;8035;51.962;7.162;2022-07-05T07:36:49;4.87;;;2.60;;
15871;SDS011;8035;51.962;7.162;2022-07-05T07:39:15;3.20;;;2.30;;
15871;SDS011;8035;51.962;7.162;2022-07-05T07:41:41;2.73;;;2.13;;
15871;SDS011;8035;51.962;7.162;2022-07-05T07:44:07;2.67;;;2.03;;
15871;SDS011;8035;51.962;7.162;2022-07-05T07:46:33;3.50;;;2.33;;
15871;SDS011;8035;51.962;7.162;2022-07-05T07:48:59;3.07;;;2.07;;
15871;SDS011;8035;51.962;7.162;2022-07-05T07:51:25;2.53;;;1.77;;
15871;SDS011;8035;51.962;7.162;2022-07-05T07:53:52;5.43;;;2.03;;
15871;SDS011;8035;51.962;7.162;2022-07-05T07:56:18;3.53;;;1.67;;
15871;SDS011;8035;51.962;7.162;2022-07-05T07:58:46;2.87;;;1.77;;
15871;SDS011;8035;51.962;7.162;2022-07-05T08:01:12;2.10;;;1.60;;
15871;SDS011;8035;51.962;7.162;2022-07-05T08:03:39;2.47;;;1.50;;
15871;SDS011;8035;51.962;7.162;2022-07-05T08:06:06;2.83;;;1.67;;
15871;SDS011;8035;51.962;7.162;2022-07-05T08:08:33;2.00;;;1.80;;
15871;SDS011;8035;51.962;7.162;2022-07-05T08:10:59;2.77;;;1.80;;
15871;SDS011;8035;51.962;7.162;2022-07-05T08:13:25;2.73;;;1.40;;
15871;SDS011;8035;51.962;7.162;2022-07-05T08:15:51;1.73;;;1.50;;
15871;SDS011;8035;51.962;7.162;2022-07-05T08:18:17;1.20;;;1.10;;
15871;SDS011;8035;51.962;7.162;2022-07-05T08:21:02;4.10;;;1.20;;
15871;SDS011;8035;51.962;7.162;2022-07-05T08:23:47;3.27;;;1.13;;
15871;SDS011;8035;51.962;7.162;2022-07-05T08:26:13;1.30;;;1.20;;
15871;SDS011;8035;51.962;7.162;2022-07-05T08:28:39;2.43;;;1.17;;
15871;SDS011;8035;51.962;7.162;2022-07-05T08:31:05;2.97;;;1.20;;
15871;SDS011;8035;51.962;7.162;2022-07-05T08:33:31;1.63;;;1.20;;
15871;SDS011;8035;51.962;7.162;2022-07-05T08:35:57;1.67;;;1.20;;
15871;SDS011;8035;51.962;7.162;2022-07-05T08:38:23;1.30;;;1.10;;
15871;SDS011;8035;51.962;7.162;2022-07-05T08:40:50;2.03;;;1.07;;
15871;SDS011;8035;51.962;7.162;2022-07-05T08:43:17;1.17;;;1.07;;
15871;SDS011;8035;51.962;7.162;2022-07-05T08:45:44;2.33;;;1.30;;
15871;SDS011;8035;51.962;7.162;2022-07-05T08:48:11;3.57;;;1.10;;
15871;SDS011;8035;51.962;7.162;2022-07-05T08:50:41;2.80;;;1.10;;
15871;SDS011;8035;51.962;7.162;2022-07-05T08:53:08;2.40;;;1.27;;
15871;SDS011;8035;51.962;7.162;2022-07-05T08:55:35;2.20;;;1.37;;
15871;SDS011;8035;51.962;7.162;2022-07-05T08:58:01;3.27;;;1.40;;
15871;SDS011;8035;51.962;7.162;2022-07-05T09:00:28;3.73;;;1.30;;
15871;SDS011;8035;51.962;7.162;2022-07-05T09:02:54;1.80;;;1.10;;
15871;SDS011;8035;51.962;7.162;2022-07-05T09:05:21;1.20;;;1.10;;
15871;SDS011;8035;51.962;7.162;2022-07-05T09:07:58;1.10;;;0.95;;
15871;SDS011;8035;51.962;7.162;2022-07-05T09:10:28;4.00;;;1.90;;
15871;SDS011;8035;51.962;7.162;2022-07-05T09:12:54;2.80;;;1.43;;
15871;SDS011;8035;51.962;7.162;2022-07-05T09:15:21;3.37;;;1.77;;
15871;SDS011;8035;51.962;7.162;2022-07-05T09:17:47;2.60;;;1.50;;
15871;SDS011;8035;51.962;7.162;2022-07-05T09:20:17;2.33;;;1.53;;
15871;SDS011;8035;51.962;7.162;2022-07-05T09:25:18;2.30;;;1.40;;
15871;SDS011;8035;51.962;7.162;2022-07-05T09:30:28;5.33;;;1.50;;
15871;SDS011;8035;51.962;7.162;2022-07-05T09:33:08;1.43;;;1.23;;
15871;SDS011;8035;51.962;7.162;2022-07-05T09:35:35;1.30;;;1.20;;
15871;SDS011;8035;51.962;7.162;2022-07-05T09:38:02;1.83;;;1.40;;
15871;SDS011;8035;51.962;7.162;2022-07-05T09:40:32;2.40;;;1.40;;
15871;SDS011;8035;51.962;7.162;2022-07-05T09:43:14;2.40;;;1.47;;
15871;SDS011;8035;51.962;7.162;2022-07-05T09:45:49;1.30;;;1.20;;
15871;SDS011;8035;51.962;7.162;2022-07-05T09:48:16;3.93;;;1.37;;
15871;SDS011;8035;51.962;7.162;2022-07-05T09:50:42;1.70;;;1.60;;
15871;SDS011;8035;51.962;7.162;2022-07-05T09:53:10;1.40;;;1.30;;
15871;SDS011;8035;51.962;7.162;2022-07-05T09:55:39;1.30;;;1.20;;
15871;SDS011;8035;51.962;7.162;2022-07-05T09:58:05;1.87;;;1.30;;
15871;SDS011;8035;51.962;7.162;2022-07-05T10:00:32;5.33;;;1.60;;
15871;SDS011;8035;51.962;7.162;2022-07-05T10:02:58;2.43;;;1.40;;
15871;SDS011;8035;51.962;7.162;2022-07-05T10:05:31;1.77;;;1.30;;
15871;SDS011;8035;51.962;7.162;2022-07-05T10:08:00;4.43;;;1.87;;
15871;SDS011;8035;51.962;7.162;2022-07-05T10:10:27;3.20;;;1.67;;
15871;SDS011;8035;51.962;7.162;2022-07-05T10:12:58;2.50;;;1.60;;
15871;SDS011;8035;51.962;7.162;2022-07-05T10:15:25;1.53;;;1.10;;
15871;SDS011;8035;51.962;7.162;2022-07-05T10:20:28;2.40;;;1.67;;
15871;SDS011;8035;51.962;7.162;2022-07-05T10:22:55;2.23;;;1.50;;
15871;SDS011;8035;51.962;7.162;2022-07-05T10:25:22;1.67;;;1.30;;
15871;SDS011;8035;51.962;7.162;2022-07-05T10:27:49;2.20;;;1.43;;
15871;SDS011;8035;51.962;7.162;2022-07-05T10:30:19;1.57;;;1.47;;
15871;SDS011;8035;51.962;7.162;2022-07-05T10:32:45;2.90;;;1.40;;
15871;SDS011;8035;51.962;7.162;2022-07-05T10:35:12;1.97;;;1.43;;
15871;SDS011;8035;51.962;7.162;2022-07-05T10:37:38;2.00;;;1.15;;
15871;SDS011;8035;51.962;7.162;2022-07-05T10:40:05;2.25;;;1.48;;
15871;SDS011;8035;51.962;7.162;2022-07-05T10:42:36;1.10;;;1.00;;
15871;SDS011;8035;51.962;7.162;2022-07-05T10:45:07;2.58;;;1.40;;
15871;SDS011;8035;51.962;7.162;2022-07-05T10:50:42;2.33;;;1.50;;
15871;SDS011;8035;51.962;7.162;2022-07-05T10:53:08;3.83;;;1.67;;
15871;SDS011;8035;51.962;7.162;2022-07-05T10:55:46;4.50;;;1.87;;
15871;SDS011;8035;51.962;7.162;2022-07-05T11:00:41;2.57;;;1.80;;
15871;SDS011;8035;51.962;7.162;2022-07-05T11:03:31;1.80;;;1.70;;
15871;SDS011;8035;51.962;7.162;2022-07-05T11:05:54;3.00;;;1.70;;
15871;SDS011;8035;51.962;7.162;2022-07-05T11:08:20;2.27;;;2.07;;
15871;SDS011;8035;51.962;7.162;2022-07-05T11:13:37;2.53;;;2.10;;
15871;SDS011;8035;51.962;7.162;2022-07-05T11:16:22;6.03;;;1.80;;
15871;SDS011;8035;51.962;7.162;2022-07-05T11:18:49;3.50;;;1.80;;
15871;SDS011;8035;51.962;7.162;2022-07-05T11:21:18;1.83;;;1.63;;
15871;SDS011;8035;51.962;7.162;2022-07-05T11:23:45;1.52;;;1.42;;
15871;SDS011;8035;51.962;7.162;2022-07-05T11:26:12;2.67;;;1.70;;
15871;SDS011;8035;51.962;7.162;2022-07-05T11:28:45;2.50;;;1.60;;
15871;SDS011;8035;51.962;7.162;2022-07-05T11:31:11;1.87;;;1.30;;
15871;SDS011;8035;51.962;7.162;2022-07-05T11:33:42;4.70;;;1.55;;
15871;SDS011;8035;51.962;7.162;2022-07-05T11:36:22;1.40;;;1.25;;
15871;SDS011;8035;51.962;7.162;2022-07-05T11:41:49;4.40;;;1.48;;
15871;SDS011;8035;51.962;7.162;2022-07-05T11:44:16;4.13;;;1.30;;
15871;SDS011;8035;51.962;7.162;2022-07-05T11:46:42;1.42;;;1.33;;
15871;SDS011;8035;51.962;7.162;2022-07-05T11:49:08;2.37;;;1.30;;
15871;SDS011;8035;51.962;7.162;2022-07-05T11:51:34;2.38;;;1.30;;
15871;SDS011;8035;51.962;7.162;2022-07-05T11:54:01;1.55;;;1.27;;
15871;SDS011;8035;51.962;7.162;2022-07-05T11:56:28;2.92;;;1.52;;
15871;SDS011;8035;51.962;7.162;2022-07-05T11:58:55;2.35;;;1.20;;
15871;SDS011;8035;51.962;7.162;2022-07-05T12:01:21;1.88;;;1.17;;
15871;SDS011;8035;51.962;7.162;2022-07-05T12:03:56;1.92;;;1.50;;
15871;SDS011;8035;51.962;7.162;2022-07-05T12:06:22;1.17;;;1.08;;
15871;SDS011;8035;51.962;7.162;2022-07-05T12:09:05;1.63;;;1.23;;
15871;SDS011;8035;51.962;7.162;2022-07-05T12:11:31;1.73;;;1.08;;
15871;SDS011;8035;51.962;7.162;2022-07-05T12:14:22;2.00;;;1.30;;
15871;SDS011;8035;51.962;7.162;2022-07-05T12:16:49;1.55;;;1.10;;
15871;SDS011;8035;51.962;7.162;2022-07-05T12:19:25;2.58;;;1.30;;
15871;SDS011;8035;51.962;7.162;2022-07-05T12:21:54;2.35;;;1.42;;
15871;SDS011;8035;51.962;7.162;2022-07-05T12:24:20;1.45;;;1.35;;
15871;SDS011;8035;51.962;7.162;2022-07-05T12:26:47;2.25;;;1.30;;
15871;SDS011;8035;51.962;7.162;2022-07-05T12:29:13;1.58;;;1.30;;
15871;SDS011;8035;51.962;7.162;2022-07-05T12:31:51;1.85;;;1.30;;
15871;SDS011;8035;51.962;7.162;2022-07-05T12:34:23;1.77;;;1.50;;
15871;SDS011;8035;51.962;7.162;2022-07-05T12:36:49;1.83;;;1.50;;
15871;SDS011;8035;51.962;7.162;2022-07-05T12:39:16;2.42;;;1.35;;
15871;SDS011;8035;51.962;7.162;2022-07-05T12:41:42;4.07;;;1.50;;
15871;SDS011;8035;51.962;7.162;2022-07-05T12:44:09;2.08;;;1.60;;
15871;SDS011;8035;51.962;7.162;2022-07-05T12:46:41;6.55;;;1.75;;
15871;SDS011;8035;51.962;7.162;2022-07-05T12:49:08;2.97;;;1.50;;
15871;SDS011;8035;51.962;7.162;2022-07-05T12:51:36;1.55;;;1.30;;
15871;SDS011;8035;51.962;7.162;2022-07-05T12:54:03;3.28;;;1.58;;
15871;SDS011;8035;51.962;7.162;2022-07-05T12:56:52;2.45;;;1.52;;
15871;SDS011;8035;51.962;7.162;2022-07-05T12:59:37;2.42;;;1.45;;
15871;SDS011;8035;51.962;7.162;2022-07-05T13:02:04;2.55;;;1.70;;
15871;SDS011;8035;51.962;7.162;2022-07-05T13:04:30;2.42;;;1.80;;
15871;SDS011;8035;51.962;7.162;2022-07-05T13:09:30;3.80;;;2.10;;
15871;SDS011;8035;51.962;7.162;2022-07-05T13:12:12;1.50;;;1.40;;
15871;SDS011;8035;51.962;7.162;2022-07-05T13:14:42;1.98;;;1.77;;
15871;SDS011;8035;51.962;7.162;2022-07-05T13:17:09;2.00;;;1.80;;
15871;SDS011;8035;51.962;7.162;2022-07-05T13:19:36;5.13;;;2.07;;
15871;SDS011;8035;51.962;7.162;2022-07-05T13:22:02;2.60;;;1.80;;
15871;SDS011;8035;51.962;7.162;2022-07-05T13:24:28;2.30;;;1.70;;
15871;SDS011;8035;51.962;7.162;2022-07-05T13:26:55;1.92;;;1.70;;
15871;SDS011;8035;51.962;7.162;2022-07-05T13:29:21;2.10;;;1.90;;
15871;SDS011;8035;51.962;7.162;2022-07-05T13:31:47;3.67;;;2.03;;
15871;SDS011;8035;51.962;7.162;2022-07-05T13:34:13;2.25;;;1.85;;
15871;SDS011;8035;51.962;7.162;2022-07-05T13:36:39;1.90;;;1.80;;
15871;SDS011;8035;51.962;7.162;2022-07-05T13:39:05;4.15;;;2.13;;
15871;SDS011;8035;51.962;7.162;2022-07-05T13:41:31;3.67;;;1.85;;
15871;SDS011;8035;51.962;7.162;2022-07-05T13:43:58;2.28;;;2.10;;
15871;SDS011;8035;51.962;7.162;2022-07-05T13:46:24;2.28;;;1.63;;
15871;SDS011;8035;51.962;7.162;2022-07-05T13:48:50;2.08;;;1.88;;
15871;SDS011;8035;51.962;7.162;2022-07-05T13:51:16;3.17;;;2.40;;
15871;SDS011;8035;51.962;7.162;2022-07-05T13:53:42;6.50;;;1.92;;
15871;SDS011;8035;51.962;7.162;2022-07-05T13:56:08;5.30;;;2.45;;
15871;SDS011;8035;51.962;7.162;2022-07-05T13:58:34;2.63;;;1.95;;
15871;SDS011;8035;51.962;7.162;2022-07-05T14:01:01;3.80;;;2.50;;
15871;SDS011;8035;51.962;7.162;2022-07-05T14:03:27;2.50;;;2.10;;
15871;SDS011;8035;51.962;7.162;2022-07-05T14:05:53;6.37;;;2.30;;
15871;SDS011;8035;51.962;7.162;2022-07-05T14:08:20;2.90;;;1.90;;
15871;SDS011;8035;51.962;7.162;2022-07-05T14:10:53;2.83;;;1.63;;
15871;SDS011;8035;51.962;7.162;2022-07-05T14:13:21;4.13;;;2.23;;
15871;SDS011;8035;51.962;7.162;2022-07-05T14:15:48;3.30;;;2.10;;
15871;SDS011;8035;51.962;7.162;2022-07-05T14:18:15;3.13;;;2.33;;
15871;SDS011;8035;51.962;7.162;2022-07-05T14:20:41;2.77;;;2.00;;
15871;SDS011;8035;51.962;7.162;2022-07-05T14:23:08;3.87;;;2.17;;
15871;SDS011;8035;51.962;7.162;2022-07-05T14:25:34;2.50;;;1.90;;
15871;SDS011;8035;51.962;7.162;2022-07-05T14:28:00;2.40;;;1.80;;
15871;SDS011;8035;51.962;7.162;2022-07-05T14:30:27;2.30;;;2.20;;
15871;SDS011;8035;51.962;7.162;2022-07-05T14:32:54;2.53;;;2.00;;
15871;SDS011;8035;51.962;7.162;2022-07-05T14:35:20;4.67;;;2.40;;
15871;SDS011;8035;51.962;7.162;2022-07-05T14:37:46;2.93;;;2.10;;
15871;SDS011;8035;51.962;7.162;2022-07-05T14:40:12;3.33;;;2.10;;
15871;SDS011;8035;51.962;7.162;2022-07-05T14:42:38;4.82;;;2.10;;
15871;SDS011;8035;51.962;7.162;2022-07-05T14:45:05;3.55;;;2.47;;
15871;SDS011;8035;51.962;7.162;2022-07-05T14:47:31;2.20;;;1.90;;
15871;SDS011;8035;51.962;7.162;2022-07-05T14:49:57;2.92;;;2.55;;
15871;SDS011;8035;51.962;7.162;2022-07-05T14:52:23;3.13;;;2.00;;
15871;SDS011;8035;51.962;7.162;2022-07-05T14:54:49;5.75;;;1.77;;
15871;SDS011;8035;51.962;7.162;2022-07-05T14:57:15;1.88;;;1.73;;
15871;SDS011;8035;51.962;7.162;2022-07-05T14:59:41;2.50;;;2.00;;
15871;SDS011;8035;51.962;7.162;2022-07-05T15:02:07;2.50;;;1.87;;
15871;SDS011;8035;51.962;7.162;2022-07-05T15:04:34;3.37;;;1.63;;
15871;SDS011;8035;51.962;7.162;2022-07-05T15:07:00;2.50;;;1.43;;
15871;SDS011;8035;51.962;7.162;2022-07-05T15:09:26;1.83;;;1.50;;
15871;SDS011;8035;51.962;7.162;2022-07-05T15:11:52;2.80;;;1.63;;
15871;SDS011;8035;51.962;7.162;2022-07-05T15:14:18;2.13;;;1.70;;
15871;SDS011;8035;51.962;7.162;2022-07-05T15:16:45;1.50;;;1.40;;
15871;SDS011;8035;51.962;7.162;2022-07-05T15:19:11;2.60;;;1.70;;
15871;SDS011;8035;51.962;7.162;2022-07-05T15:21:38;4.27;;;1.70;;
15871;SDS011;8035;51.962;7.162;2022-07-05T15:24:04;2.20;;;1.80;;
15871;SDS011;8035;51.962;7.162;2022-07-05T15:26:30;3.70;;;1.60;;